KPIM/PIM METAR and TAF weather

Enter ICAO airport designator
Station Type Date Time Source
KPIM METAR 2019/05/24 17:55 UTC NOAA

KPIM 241755Z AUTO 00000KT 10SM SCT070 31/18 A3020 RMK AO2 6//// T03060183 PWINO


Station Type Date Time Source
KPIM Decoded METAR 2019/05/24 17:55 UTC NOAA

Station name not available
May 24, 2019 - 01:55 PM EDT / 2019.05.24 1755 UTC
Wind: Calm:0
Visibility: 10 mile(s):0
Sky conditions: partly cloudy
Temperature: 87.1 F (30.6 C)
Dew Point: 64.9 F (18.3 C)
Relative Humidity: 47%
Pressure (altimeter): 30.2 in. Hg (1022 hPa)
ob: KPIM 241755Z AUTO 00000KT 10SM SCT070 31/18 A3020 RMK AO2 6//// T03060183 PWINO
cycle: 18

Station Type Date Time Source
KPIM TAF UTC NOAA

Error!

Example: see airport list